GFA320 LBBG-OBBI
Flight info
| Callsign | GFA320 |
|---|---|
| Flight time | N/A |
| Altitude | 36000 |
| Route | MEDE3S MEDEM L742 RIXEN L605 NAMAN UA17 YUCEL UL605 BADOX SIDAD P975 LONOS L703 KOBOK KOBOK1 |
| Aircraft | A320/M-V/N |
Departure
| Time | 2026-05-01 14:25 |
|---|---|
| Airport | Burgas Airport (LBBG) |
Arrival
| Time | N/A |
|---|---|
| Airport | Bahrain International Airport (OBBI) |
| Time | Latitude | Longitude | Altitude | Speed | Heading |
|---|---|---|---|---|---|
| 2026-05-01 14:04 | 42.56746 | 27.51749 | 113 ft | 0 kts | 333° |
| 2026-05-01 14:20 | 42.56759 | 27.51736 | 112 ft | 7 kts | 323° |
| 2026-05-01 14:20 | 42.56794 | 27.51637 | 112 ft | 16 kts | 264° |
| 2026-05-01 14:21 | 42.56682 | 27.51580 | 111 ft | 22 kts | 220° |
| 2026-05-01 14:21 | 42.56578 | 27.51422 | 108 ft | 23 kts | 227° |
| 2026-05-01 14:21 | 42.56468 | 27.51255 | 107 ft | 25 kts | 228° |
| 2026-05-01 14:22 | 42.56223 | 27.50885 | 104 ft | 28 kts | 228° |
| 2026-05-01 14:22 | 42.56089 | 27.50684 | 101 ft | 29 kts | 227° |
| 2026-05-01 14:22 | 42.55949 | 27.50472 | 101 ft | 31 kts | 228° |
| 2026-05-01 14:22 | 42.55860 | 27.50242 | 99 ft | 21 kts | 295° |
| 2026-05-01 14:23 | 42.55923 | 27.50208 | 98 ft | 10 kts | 354° |
| 2026-05-01 14:23 | 42.56017 | 27.50220 | 96 ft | 15 kts | 23° |
| 2026-05-01 14:23 | 42.56063 | 27.50271 | 97 ft | 0 kts | 44° |
| 2026-05-01 14:24 | 42.56153 | 27.50393 | 100 ft | 52 kts | 45° |
| 2026-05-01 14:24 | 42.56574 | 27.50947 | 105 ft | 114 kts | 44° |
| 2026-05-01 14:25 | 42.57250 | 27.51854 | 197 ft | 153 kts | 46° |
| 2026-05-01 14:25 | 42.58017 | 27.52943 | 621 ft | 171 kts | 53° |
| 2026-05-01 14:25 | 42.58672 | 27.54416 | 1138 ft | 192 kts | 68° |
| 2026-05-01 14:25 | 42.59019 | 27.56245 | 1854 ft | 210 kts | 80° |
| 2026-05-01 14:26 | 42.58945 | 27.58258 | 2804 ft | 218 kts | 99° |
| 2026-05-01 14:26 | 42.58432 | 27.62343 | 4686 ft | 223 kts | 89° |
| 2026-05-01 14:26 | 42.58441 | 27.64466 | 5570 ft | 226 kts | 83° |
| 2026-05-01 14:27 | 42.58588 | 27.66609 | 6458 ft | 230 kts | 79° |
| 2026-05-01 14:27 | 42.58807 | 27.68775 | 7306 ft | 233 kts | 78° |
| 2026-05-01 14:27 | 42.59054 | 27.70964 | 8147 ft | 236 kts | 78° |
| 2026-05-01 14:28 | 42.59312 | 27.75460 | 9738 ft | 248 kts | 103° |
| 2026-05-01 14:28 | 42.58496 | 27.77545 | 10422 ft | 257 kts | 133° |
| 2026-05-01 14:28 | 42.57131 | 27.79141 | 11090 ft | 262 kts | 142° |
| 2026-05-01 14:28 | 42.55638 | 27.80592 | 11786 ft | 265 kts | 144° |
| 2026-05-01 14:29 | 42.54124 | 27.82038 | 12476 ft | 268 kts | 143° |
| 2026-05-01 14:29 | 42.52610 | 27.83531 | 13163 ft | 271 kts | 143° |
| 2026-05-01 14:30 | 42.48037 | 27.88256 | 15064 ft | 281 kts | 142° |
| 2026-05-01 14:30 | 42.46488 | 27.89878 | 15642 ft | 284 kts | 143° |
| 2026-05-01 14:30 | 42.44910 | 27.91529 | 16240 ft | 286 kts | 143° |
| 2026-05-01 14:31 | 42.41711 | 27.94867 | 17366 ft | 293 kts | 144° |
| 2026-05-01 14:31 | 42.40126 | 27.96623 | 17934 ft | 297 kts | 135° |
| 2026-05-01 14:31 | 42.38838 | 27.98819 | 18486 ft | 301 kts | 121° |
| 2026-05-01 14:31 | 42.37863 | 28.01338 | 18959 ft | 304 kts | 118° |
| 2026-05-01 14:32 | 42.36892 | 28.03886 | 19429 ft | 306 kts | 118° |
| 2026-05-01 14:32 | 42.35902 | 28.06444 | 19917 ft | 308 kts | 118° |
| 2026-05-01 14:32 | 42.34900 | 28.09016 | 20363 ft | 311 kts | 119° |
| 2026-05-01 14:32 | 42.33890 | 28.11603 | 20818 ft | 313 kts | 119° |
| 2026-05-01 14:33 | 42.32870 | 28.14214 | 21268 ft | 315 kts | 119° |
| 2026-05-01 14:33 | 42.31843 | 28.16840 | 21708 ft | 317 kts | 119° |
| 2026-05-01 14:33 | 42.30809 | 28.19482 | 22126 ft | 319 kts | 119° |
| 2026-05-01 14:33 | 42.29766 | 28.22146 | 22541 ft | 322 kts | 119° |
| 2026-05-01 14:34 | 42.28717 | 28.24821 | 22947 ft | 324 kts | 119° |
| 2026-05-01 14:34 | 42.27660 | 28.27516 | 23317 ft | 328 kts | 120° |
| 2026-05-01 14:34 | 42.26573 | 28.30282 | 23453 ft | 338 kts | 120° |
| 2026-05-01 14:34 | 42.25463 | 28.33107 | 23805 ft | 342 kts | 120° |
| 2026-05-01 14:35 | 42.24347 | 28.35947 | 24153 ft | 344 kts | 120° |
| 2026-05-01 14:35 | 42.23222 | 28.38805 | 24493 ft | 346 kts | 120° |
| 2026-05-01 14:35 | 42.22104 | 28.41641 | 24808 ft | 348 kts | 120° |
| 2026-05-01 14:35 | 42.20963 | 28.44531 | 25136 ft | 350 kts | 120° |
| 2026-05-01 14:36 | 42.19814 | 28.47439 | 25453 ft | 352 kts | 120° |
| 2026-05-01 14:36 | 42.18657 | 28.50365 | 25738 ft | 355 kts | 120° |
| 2026-05-01 14:36 | 42.17491 | 28.53309 | 26005 ft | 357 kts | 120° |
| 2026-05-01 14:36 | 42.16319 | 28.56267 | 26284 ft | 359 kts | 120° |
| 2026-05-01 14:37 | 42.15140 | 28.59238 | 26550 ft | 360 kts | 120° |
| 2026-05-01 14:37 | 42.13957 | 28.62219 | 26804 ft | 362 kts | 120° |
| 2026-05-01 14:37 | 42.12763 | 28.65221 | 27070 ft | 364 kts | 120° |
| 2026-05-01 14:37 | 42.11565 | 28.68233 | 27312 ft | 366 kts | 120° |
| 2026-05-01 14:38 | 42.10358 | 28.71263 | 27545 ft | 368 kts | 120° |
| 2026-05-01 14:38 | 42.09145 | 28.74306 | 27796 ft | 370 kts | 120° |
| 2026-05-01 14:38 | 42.07893 | 28.77339 | 28014 ft | 371 kts | 125° |
| 2026-05-01 14:38 | 42.06505 | 28.80274 | 28242 ft | 373 kts | 125° |
| 2026-05-01 14:39 | 42.05117 | 28.83226 | 28475 ft | 374 kts | 124° |
| 2026-05-01 14:39 | 42.03726 | 28.86197 | 28681 ft | 376 kts | 124° |
| 2026-05-01 14:39 | 42.02328 | 28.89183 | 28921 ft | 378 kts | 124° |
| 2026-05-01 14:39 | 42.00924 | 28.92180 | 29136 ft | 380 kts | 124° |
| 2026-05-01 14:40 | 41.99509 | 28.95194 | 29344 ft | 381 kts | 125° |
| 2026-05-01 14:40 | 41.98090 | 28.98211 | 29551 ft | 383 kts | 125° |
| 2026-05-01 14:40 | 41.96660 | 29.01247 | 29753 ft | 385 kts | 125° |
| 2026-05-01 14:40 | 41.95226 | 29.04288 | 29965 ft | 386 kts | 125° |
| 2026-05-01 14:41 | 41.93786 | 29.07338 | 30170 ft | 388 kts | 125° |
| 2026-05-01 14:41 | 41.92357 | 29.10364 | 30347 ft | 390 kts | 125° |
| 2026-05-01 14:41 | 41.90901 | 29.13442 | 30505 ft | 392 kts | 125° |
| 2026-05-01 14:41 | 41.89436 | 29.16535 | 30643 ft | 394 kts | 125° |
| 2026-05-01 14:42 | 41.87965 | 29.19641 | 30799 ft | 395 kts | 125° |
| 2026-05-01 14:42 | 41.86483 | 29.22764 | 30942 ft | 398 kts | 126° |
| 2026-05-01 14:42 | 41.84994 | 29.25900 | 31098 ft | 399 kts | 126° |
| 2026-05-01 14:42 | 41.83498 | 29.29046 | 31245 ft | 401 kts | 126° |
| 2026-05-01 14:43 | 41.81994 | 29.32206 | 31393 ft | 403 kts | 126° |
| 2026-05-01 14:43 | 41.80480 | 29.35385 | 31538 ft | 405 kts | 126° |
| 2026-05-01 14:43 | 41.78960 | 29.38572 | 31684 ft | 407 kts | 126° |
| 2026-05-01 14:43 | 41.77433 | 29.41772 | 31823 ft | 408 kts | 126° |
| 2026-05-01 14:44 | 41.75900 | 29.44980 | 31964 ft | 410 kts | 126° |
| 2026-05-01 14:44 | 41.72812 | 29.51430 | 32239 ft | 413 kts | 127° |
| 2026-05-01 14:44 | 41.71257 | 29.54676 | 32377 ft | 415 kts | 127° |
| 2026-05-01 14:45 | 41.69694 | 29.57932 | 32517 ft | 416 kts | 127° |
| 2026-05-01 14:45 | 41.66554 | 29.64465 | 32765 ft | 419 kts | 127° |
| 2026-05-01 14:45 | 41.64976 | 29.67742 | 32905 ft | 420 kts | 127° |
| 2026-05-01 14:46 | 41.63391 | 29.71032 | 33023 ft | 422 kts | 127° |
| 2026-05-01 14:46 | 41.60200 | 29.77641 | 33269 ft | 424 kts | 127° |
| 2026-05-01 14:46 | 41.58596 | 29.80957 | 33390 ft | 426 kts | 127° |
| 2026-05-01 14:47 | 41.56987 | 29.84282 | 33496 ft | 427 kts | 127° |
| 2026-05-01 14:47 | 41.55370 | 29.87618 | 33608 ft | 428 kts | 127° |
| 2026-05-01 14:47 | 41.53746 | 29.90966 | 33721 ft | 430 kts | 127° |
| 2026-05-01 14:48 | 41.50488 | 29.97670 | 33935 ft | 432 kts | 128° |
| 2026-05-01 14:48 | 41.48868 | 30.00999 | 34036 ft | 433 kts | 128° |
| 2026-05-01 14:48 | 41.45572 | 30.07759 | 34235 ft | 436 kts | 128° |
| 2026-05-01 14:49 | 41.42261 | 30.14534 | 34398 ft | 437 kts | 128° |
| 2026-05-01 14:49 | 41.38929 | 30.21338 | 34566 ft | 439 kts | 128° |
| 2026-05-01 14:50 | 41.36689 | 30.25902 | 34672 ft | 440 kts | 128° |
| 2026-05-01 14:50 | 41.32214 | 30.35004 | 34865 ft | 443 kts | 128° |
| 2026-05-01 14:51 | 41.27703 | 30.44149 | 35071 ft | 445 kts | 128° |
| 2026-05-01 14:52 | 41.24300 | 30.51031 | 35215 ft | 447 kts | 129° |
| 2026-05-01 14:52 | 41.22590 | 30.54482 | 35284 ft | 447 kts | 129° |
| 2026-05-01 14:52 | 41.19160 | 30.61395 | 35405 ft | 449 kts | 129° |
| 2026-05-01 14:53 | 41.17440 | 30.64855 | 35466 ft | 450 kts | 129° |
| 2026-05-01 14:53 | 41.13984 | 30.71796 | 35596 ft | 451 kts | 129° |
| 2026-05-01 14:54 | 41.10513 | 30.78754 | 35703 ft | 453 kts | 129° |
| 2026-05-01 14:54 | 41.07028 | 30.85721 | 35838 ft | 454 kts | 129° |
| 2026-05-01 14:55 | 41.03528 | 30.92705 | 35935 ft | 456 kts | 129° |
| 2026-05-01 14:55 | 41.00017 | 30.99699 | 36040 ft | 457 kts | 129° |
| 2026-05-01 14:56 | 40.96511 | 31.06755 | 36165 ft | 460 kts | 129° |
| 2026-05-01 14:56 | 40.92998 | 31.13873 | 36163 ft | 464 kts | 129° |
| 2026-05-01 14:57 | 40.89445 | 31.21043 | 36159 ft | 468 kts | 129° |
| 2026-05-01 14:57 | 40.84067 | 31.31852 | 36157 ft | 475 kts | 129° |
| 2026-05-01 14:58 | 40.80417 | 31.39165 | 36146 ft | 480 kts | 129° |
| 2026-05-01 14:58 | 40.76727 | 31.46544 | 36135 ft | 484 kts | 129° |
| 2026-05-01 14:59 | 40.72992 | 31.53993 | 36127 ft | 489 kts | 129° |
| 2026-05-01 14:59 | 40.69223 | 31.61492 | 36118 ft | 492 kts | 129° |
| 2026-05-01 15:00 | 40.63522 | 31.72801 | 36100 ft | 496 kts | 129° |
| 2026-05-01 15:01 | 40.59699 | 31.80361 | 36100 ft | 496 kts | 129° |
| 2026-05-01 15:01 | 40.55853 | 31.87911 | 36102 ft | 497 kts | 130° |
| 2026-05-01 15:02 | 40.51956 | 31.95439 | 36088 ft | 498 kts | 130° |
| 2026-05-01 15:02 | 40.48056 | 32.02959 | 36081 ft | 498 kts | 130° |
| 2026-05-01 15:03 | 40.44152 | 32.10483 | 36074 ft | 498 kts | 130° |
| 2026-05-01 15:03 | 40.40241 | 32.17998 | 36066 ft | 498 kts | 130° |
| 2026-05-01 15:04 | 40.36320 | 32.25491 | 36057 ft | 498 kts | 130° |
| 2026-05-01 15:04 | 40.32401 | 32.32964 | 36047 ft | 498 kts | 130° |
| 2026-05-01 15:05 | 40.28475 | 32.40433 | 36046 ft | 497 kts | 130° |
| 2026-05-01 15:05 | 40.24548 | 32.47886 | 36039 ft | 497 kts | 130° |
| 2026-05-01 15:06 | 40.20616 | 32.55333 | 36029 ft | 497 kts | 130° |
| 2026-05-01 15:06 | 40.16684 | 32.62761 | 36016 ft | 497 kts | 130° |
| 2026-05-01 15:07 | 40.12749 | 32.70177 | 36007 ft | 496 kts | 130° |
| 2026-05-01 15:07 | 40.08814 | 32.77576 | 36006 ft | 495 kts | 130° |
| 2026-05-01 15:08 | 40.04665 | 32.84714 | 36001 ft | 491 kts | 135° |
| 2026-05-01 15:08 | 40.00358 | 32.91570 | 36000 ft | 491 kts | 135° |
| 2026-05-01 15:09 | 39.96029 | 32.98465 | 35999 ft | 492 kts | 135° |
| 2026-05-01 15:09 | 39.91692 | 33.05355 | 35999 ft | 492 kts | 135° |
| 2026-05-01 15:10 | 39.87348 | 33.12239 | 35995 ft | 492 kts | 135° |
| 2026-05-01 15:10 | 39.80825 | 33.22543 | 35988 ft | 491 kts | 135° |
| 2026-05-01 15:11 | 39.74301 | 33.32816 | 35986 ft | 491 kts | 135° |
| 2026-05-01 15:12 | 39.69948 | 33.39653 | 35983 ft | 491 kts | 135° |
| 2026-05-01 15:12 | 39.63410 | 33.49894 | 35981 ft | 491 kts | 135° |
| 2026-05-01 15:14 | 39.52578 | 33.67036 | 35974 ft | 492 kts | 133° |
| 2026-05-01 15:14 | 39.46165 | 33.77403 | 35965 ft | 492 kts | 134° |
| 2026-05-01 15:15 | 39.37432 | 33.90985 | 35966 ft | 491 kts | 135° |
| 2026-05-01 15:16 | 39.29221 | 34.05048 | 35958 ft | 494 kts | 129° |
| 2026-05-01 15:18 | 39.19566 | 34.23401 | 35951 ft | 495 kts | 129° |
| 2026-05-01 15:19 | 39.11832 | 34.38087 | 35942 ft | 495 kts | 129° |
| 2026-05-01 15:19 | 39.06014 | 34.49089 | 35930 ft | 496 kts | 128° |
| 2026-05-01 15:20 | 39.00179 | 34.60088 | 35920 ft | 496 kts | 128° |
| 2026-05-01 15:21 | 38.96286 | 34.67407 | 35918 ft | 496 kts | 128° |
| 2026-05-01 15:21 | 38.92392 | 34.74707 | 35915 ft | 496 kts | 128° |
| 2026-05-01 15:22 | 38.86531 | 34.85664 | 35908 ft | 496 kts | 128° |
| 2026-05-01 15:22 | 38.82620 | 34.92946 | 35903 ft | 496 kts | 128° |
| 2026-05-01 15:23 | 38.78701 | 35.00225 | 35897 ft | 496 kts | 128° |
| 2026-05-01 15:23 | 38.74780 | 35.07491 | 35893 ft | 496 kts | 128° |
| 2026-05-01 15:24 | 38.70854 | 35.14749 | 35890 ft | 496 kts | 128° |
| 2026-05-01 15:24 | 38.66922 | 35.22002 | 35882 ft | 496 kts | 128° |
| 2026-05-01 15:25 | 38.62986 | 35.29247 | 35879 ft | 496 kts | 129° |
| 2026-05-01 15:25 | 38.59046 | 35.36483 | 35884 ft | 496 kts | 129° |
| 2026-05-01 15:26 | 38.55100 | 35.43713 | 35889 ft | 496 kts | 129° |
| 2026-05-01 15:26 | 38.51152 | 35.50933 | 35886 ft | 495 kts | 129° |
| 2026-05-01 15:27 | 38.47211 | 35.58121 | 35893 ft | 494 kts | 129° |
| 2026-05-01 15:28 | 38.41296 | 35.68883 | 35895 ft | 494 kts | 129° |
| 2026-05-01 15:28 | 38.37347 | 35.76046 | 35900 ft | 494 kts | 129° |
| 2026-05-01 15:29 | 38.31424 | 35.86764 | 35909 ft | 493 kts | 129° |
| 2026-05-01 15:30 | 38.24179 | 35.99825 | 35921 ft | 493 kts | 129° |
| 2026-05-01 15:31 | 38.11624 | 36.22338 | 35942 ft | 493 kts | 129° |
| 2026-05-01 15:32 | 38.03666 | 36.36527 | 35945 ft | 493 kts | 129° |
| 2026-05-01 15:34 | 37.91708 | 36.57735 | 35947 ft | 492 kts | 129° |